Time;durP1;ratioP1;P1;durP2;ratioP2;P2;SDS_P1;SDS_P2;PMS_P1;PMS_P2;Temp;Humidity;BMP_temperature;BMP_pressure;BME280_temperature;BME280_humidity;BME280_pressure;Samples;Min_cycle;Max_cycle;Signal;HPM_P1;HPM_P2
2023/12/19 00:04:58;;;;;;;30.23;16.67;;;;;5.50;102165.00;;;;10077606;29;20259;-83
2023/12/19 00:09:59;;;;;;;35.47;17.97;;;;;5.40;102158.00;;;;10071769;29;20276;-82
2023/12/19 00:15:01;;;;;;;31.10;16.87;;;;;5.40;102137.00;;;;10062970;29;20235;-81
2023/12/19 00:20:02;;;;;;;28.97;18.43;;;;;5.40;102133.00;;;;10070400;29;20239;-82
2023/12/19 00:25:04;;;;;;;28.67;16.23;;;;;5.40;102126.00;;;;10059587;29;20230;-82
2023/12/19 00:30:06;;;;;;;32.53;17.97;;;;;5.40;102113.00;;;;10070187;29;20239;-82
2023/12/19 00:35:08;;;;;;;26.30;16.70;;;;;5.40;102110.00;;;;10060407;29;20223;-82
2023/12/19 00:40:13;;;;;;;31.60;18.07;;;;;5.40;102106.00;;;;10065234;29;20307;-82
2023/12/19 00:45:14;;;;;;;27.90;16.90;;;;;5.40;102106.00;;;;10070361;29;20227;-81
2023/12/19 00:50:15;;;;;;;33.17;17.47;;;;;5.40;102081.00;;;;10055363;29;20228;-82
2023/12/19 00:55:17;;;;;;;33.30;17.17;;;;;5.40;102084.00;;;;10068658;29;20230;-81
2023/12/19 01:00:18;;;;;;;30.73;17.63;;;;;5.40;102072.00;;;;10054013;29;20266;-81
2023/12/19 01:05:19;;;;;;;30.00;18.13;;;;;5.40;102070.00;;;;10051300;29;20686;-82
2023/12/19 01:10:21;;;;;;;26.53;16.53;;;;;5.40;102075.00;;;;10071425;29;20224;-82
2023/12/19 01:15:24;;;;;;;33.47;17.03;;;;;5.50;102075.00;;;;10073824;29;20260;-81
2023/12/19 01:20:25;;;;;;;32.97;19.10;;;;;5.50;102071.00;;;;10059067;29;20245;-84
2023/12/19 01:25:26;;;;;;;33.80;18.53;;;;;5.50;102076.00;;;;10066860;29;20236;-85
2023/12/19 01:30:27;;;;;;;34.03;19.13;;;;;5.60;102069.00;;;;10055603;29;20253;-85
2023/12/19 01:35:29;;;;;;;30.77;17.60;;;;;5.60;102064.00;;;;10072506;29;20227;-85
2023/12/19 01:40:31;;;;;;;31.77;18.93;;;;;5.60;102070.00;;;;10064569;29;20254;-85
2023/12/19 01:45:32;;;;;;;25.20;16.10;;;;;5.70;102078.00;;;;10039029;29;20790;-85
2023/12/19 01:50:34;;;;;;;42.43;19.77;;;;;5.70;102060.00;;;;10055997;29;20240;-85
2023/12/19 01:55:37;;;;;;;31.20;18.93;;;;;5.70;102054.00;;;;10068425;29;20276;-86
2023/12/19 02:06:43;;;;;;;28.57;16.73;;;;;5.70;102045.00;;;;11802592;23;20230;-84
2023/12/19 02:11:45;;;;;;;32.70;19.20;;;;;5.70;102046.00;;;;10116069;29;20230;-87
2023/12/19 02:16:46;;;;;;;35.13;20.03;;;;;5.80;102049.00;;;;10088132;29;20747;-82
2023/12/19 02:21:47;;;;;;;33.57;19.20;;;;;5.80;102050.00;;;;10052706;29;20621;-82
2023/12/19 10:03:20;;;;;;;21.10;10.67;;;;;7.00;101545.00;;;;10097998;29;20273;-81
2023/12/19 10:08:22;;;;;;;22.13;10.33;;;;;7.00;101536.00;;;;10067357;29;20227;-82
2023/12/19 10:13:37;;;;;;;14.03;8.33;;;;;7.10;101536.00;;;;10074843;29;20253;-81
2023/12/19 10:18:42;;;;;;;14.17;8.47;;;;;7.10;101522.00;;;;10090953;29;20295;-86
2023/12/19 10:23:48;;;;;;;16.07;8.33;;;;;7.10;101501.00;;;;10091073;29;20611;-86
2023/12/19 10:28:56;;;;;;;17.03;8.73;;;;;7.20;101502.00;;;;10095376;29;20234;-87
2023/12/19 10:33:57;;;;;;;20.77;10.53;;;;;7.20;101494.00;;;;10065893;29;20235;-84
2023/12/19 10:39:02;;;;;;;18.17;9.33;;;;;7.30;101485.00;;;;10067251;29;20225;-85
2023/12/19 10:44:04;;;;;;;16.37;8.73;;;;;7.40;101466.00;;;;10058156;29;20231;-85
2023/12/19 10:49:05;;;;;;;17.23;10.13;;;;;7.40;101452.00;;;;10067502;29;20236;-86
2023/12/19 10:54:14;;;;;;;15.40;9.40;;;;;7.50;101445.00;;;;10087108;29;20227;-86
2023/12/19 10:59:29;;;;;;;14.63;9.27;;;;;7.60;101432.00;;;;10085786;29;20273;-85
2023/12/19 11:04:35;;;;;;;16.63;10.10;;;;;7.60;101420.00;;;;10062577;29;20309;-85
2023/12/19 11:09:39;;;;;;;19.40;10.63;;;;;7.50;101420.00;;;;10081614;29;20312;-85
2023/12/19 11:14:40;;;;;;;13.27;8.30;;;;;7.50;101392.00;;;;10063863;29;20232;-86
2023/12/19 11:19:49;;;;;;;16.53;10.07;;;;;7.60;101393.00;;;;10086308;29;20322;-85
2023/12/19 11:25:16;;;;;;;14.37;8.80;;;;;7.60;101391.00;;;;10083791;29;20277;-85
2023/12/19 11:30:35;;;;;;;10.30;6.80;;;;;7.70;101389.00;;;;10074137;29;20238;-84
2023/12/19 11:35:36;;;;;;;17.13;8.77;;;;;7.80;101371.00;;;;10086835;29;20911;-85
2023/12/19 11:40:51;;;;;;;17.03;8.73;;;;;7.90;101368.00;;;;10087569;29;20247;-82
2023/12/19 11:46:02;;;;;;;16.43;9.17;;;;;7.80;101363.00;;;;10065142;29;20344;-83
2023/12/19 11:51:04;;;;;;;14.57;8.70;;;;;7.80;101360.00;;;;10067296;29;20240;-83
2023/12/19 11:56:09;;;;;;;18.47;9.33;;;;;7.80;101349.00;;;;10084684;29;20506;-86
2023/12/19 12:01:10;;;;;;;16.33;8.67;;;;;7.80;101341.00;;;;10088224;29;20227;-82
2023/12/19 12:06:12;;;;;;;14.93;9.27;;;;;7.80;101322.00;;;;10074885;29;20258;-82
2023/12/19 12:11:13;;;;;;;15.23;9.40;;;;;7.90;101314.00;;;;10100964;29;20883;-82
2023/12/19 12:16:15;;;;;;;14.90;8.70;;;;;8.00;101314.00;;;;10072580;29;20717;-83
2023/12/19 12:21:16;;;;;;;16.17;9.57;;;;;7.90;101307.00;;;;10068703;29;20606;-84
2023/12/19 12:26:20;;;;;;;16.47;10.13;;;;;7.90;101292.00;;;;10085402;29;20238;-83
2023/12/19 12:31:21;;;;;;;18.70;10.20;;;;;7.80;101292.00;;;;10070704;29;20232;-82
2023/12/19 12:36:27;;;;;;;18.73;10.23;;;;;7.80;101283.00;;;;10071679;29;20834;-82
2023/12/19 12:41:30;;;;;;;19.13;11.23;;;;;7.70;101278.00;;;;10061289;29;20354;-82
2023/12/19 12:46:31;;;;;;;16.43;11.07;;;;;7.60;101278.00;;;;10088416;29;20644;-82
2023/12/19 12:51:32;;;;;;;19.47;11.97;;;;;7.60;101280.00;;;;10057633;29;20236;-78
2023/12/19 12:56:39;;;;;;;18.40;12.20;;;;;7.50;101289.00;;;;10082414;29;20231;-80
2023/12/19 13:01:41;;;;;;;19.13;11.10;;;;;7.50;101275.00;;;;10081157;29;20306;-78
2023/12/19 13:06:44;;;;;;;18.57;11.10;;;;;7.50;101257.00;;;;10083950;29;20235;-79
2023/12/19 13:11:53;;;;;;;20.83;12.53;;;;;7.50;101256.00;;;;10095539;29;20250;-79
2023/12/19 13:16:55;;;;;;;19.77;11.67;;;;;7.50;101248.00;;;;10067077;29;20231;-78
2023/12/19 13:21:56;;;;;;;20.03;11.00;;;;;7.50;101251.00;;;;10061454;29;20283;-79
2023/12/19 13:26:57;;;;;;;19.17;11.67;;;;;7.60;101224.00;;;;10076793;29;20311;-77
2023/12/19 13:31:58;;;;;;;18.93;12.07;;;;;7.60;101226.00;;;;10077524;29;20272;-79
2023/12/19 13:36:59;;;;;;;17.37;10.90;;;;;7.60;101211.00;;;;10075612;29;20228;-78
2023/12/19 13:42:05;;;;;;;16.00;10.27;;;;;7.60;101193.00;;;;10075762;29;20234;-78
2023/12/19 13:47:06;;;;;;;15.03;9.17;;;;;7.70;101178.00;;;;10066904;29;20270;-79
2023/12/19 13:52:07;;;;;;;13.00;9.30;;;;;7.70;101179.00;;;;10081810;29;21037;-78
2023/12/19 13:57:08;;;;;;;9.83;6.60;;;;;7.70;101175.00;;;;10068168;29;20379;-80
2023/12/19 14:02:09;;;;;;;13.43;10.13;;;;;7.60;101171.00;;;;10066721;29;20263;-87
2023/12/19 14:07:15;;;;;;;14.30;8.63;;;;;7.60;101160.00;;;;10085954;29;20259;-86
2023/12/19 14:12:17;;;;;;;16.43;11.47;;;;;7.60;101152.00;;;;10061617;29;20351;-86
2023/12/19 14:17:18;;;;;;;16.10;10.53;;;;;7.60;101146.00;;;;10094324;29;20219;-85
2023/12/19 14:22:20;;;;;;;16.00;9.60;;;;;7.60;101134.00;;;;10052682;29;21150;-85
2023/12/19 14:27:22;;;;;;;12.27;8.97;;;;;7.70;101113.00;;;;10095124;29;20239;-87
2023/12/19 14:32:24;;;;;;;12.43;8.07;;;;;7.70;101104.00;;;;10082959;29;20227;-86
2023/12/19 14:37:25;;;;;;;15.43;9.90;;;;;7.70;101107.00;;;;10106776;29;20224;-87
2023/12/19 14:42:26;;;;;;;11.13;7.67;;;;;7.70;101095.00;;;;10069152;29;20228;-84
2023/12/19 14:47:31;;;;;;;15.47;10.33;;;;;7.70;101092.00;;;;10055137;29;20240;-87
2023/12/19 14:52:33;;;;;;;9.03;7.40;;;;;7.70;101089.00;;;;10058227;29;20234;-84
2023/12/19 14:57:34;;;;;;;13.20;10.10;;;;;7.80;101087.00;;;;10054234;29;20860;-84
2023/12/19 15:02:35;;;;;;;12.53;8.63;;;;;7.80;101063.00;;;;10072074;29;20223;-87
2023/12/19 15:07:37;;;;;;;13.83;9.70;;;;;7.80;101065.00;;;;10082163;29;20255;-79
2023/12/19 15:12:41;;;;;;;12.17;9.57;;;;;7.80;101065.00;;;;10069538;29;20250;-80
2023/12/19 15:17:43;;;;;;;13.70;10.83;;;;;7.80;101060.00;;;;10081320;29;20756;-79
2023/12/19 15:22:45;;;;;;;14.40;10.23;;;;;7.80;101059.00;;;;10072195;29;20244;-80
2023/12/19 15:27:46;;;;;;;15.10;10.53;;;;;7.90;101049.00;;;;10099137;29;20762;-80
2023/12/19 15:32:47;;;;;;;14.10;10.13;;;;;7.90;101054.00;;;;10068634;29;20253;-80
2023/12/19 15:37:49;;;;;;;14.10;10.43;;;;;8.00;101047.00;;;;10063389;29;20239;-80
2023/12/19 15:42:50;;;;;;;13.40;8.93;;;;;8.00;101046.00;;;;10060621;29;20223;-80
2023/12/19 15:47:51;;;;;;;14.33;9.77;;;;;8.00;101047.00;;;;10066542;29;20250;-80
2023/12/19 15:52:52;;;;;;;16.43;12.17;;;;;8.00;101051.00;;;;10091495;29;20314;-80
2023/12/19 15:57:54;;;;;;;18.97;12.37;;;;;8.00;101049.00;;;;10061073;29;20231;-80
2023/12/19 16:02:59;;;;;;;18.63;11.97;;;;;8.00;101040.00;;;;10087081;29;20235;-80
2023/12/19 16:08:03;;;;;;;13.67;10.90;;;;;8.00;101034.00;;;;10075499;29;20224;-80
2023/12/19 16:13:04;;;;;;;14.97;11.07;;;;;8.00;101034.00;;;;10070012;29;20266;-80
2023/12/19 16:18:05;;;;;;;14.40;10.37;;;;;8.00;101029.00;;;;10074634;29;20227;-81
2023/12/19 16:23:06;;;;;;;15.53;12.00;;;;;8.00;101032.00;;;;10087090;29;20230;-79
2023/12/19 16:28:10;;;;;;;14.23;11.37;;;;;8.00;101029.00;;;;10088959;29;20861;-80
2023/12/19 16:33:12;;;;;;;17.17;11.30;;;;;8.00;101023.00;;;;10066326;29;20927;-80
2023/12/19 16:38:13;;;;;;;15.37;12.13;;;;;8.00;101017.00;;;;10076741;29;20232;-80
2023/12/19 16:43:19;;;;;;;17.63;11.60;;;;;8.00;101027.00;;;;10089925;29;20234;-80
2023/12/19 16:48:20;;;;;;;14.20;10.80;;;;;8.00;101035.00;;;;10071481;29;20272;-80
2023/12/19 16:53:22;;;;;;;16.50;12.53;;;;;8.00;101022.00;;;;10083342;29;20685;-79
2023/12/19 16:58:23;;;;;;;14.77;11.53;;;;;8.10;101011.00;;;;10076606;29;20291;-79
2023/12/19 17:03:41;;;;;;;16.70;11.60;;;;;8.10;101021.00;;;;10081787;29;20238;-80
2023/12/19 17:08:43;;;;;;;16.07;10.13;;;;;8.10;101006.00;;;;10070496;29;20269;-80
2023/12/19 17:13:44;;;;;;;18.80;11.93;;;;;8.20;101022.00;;;;10083990;29;20243;-79
2023/12/19 17:18:45;;;;;;;14.87;10.03;;;;;8.20;101031.00;;;;10064880;29;20830;-79
2023/12/19 17:23:46;;;;;;;14.00;10.87;;;;;8.20;101044.00;;;;10068254;29;20315;-79
2023/12/19 17:28:54;;;;;;;15.07;11.37;;;;;8.20;101066.00;;;;10064225;29;21260;-84
2023/12/19 17:33:56;;;;;;;17.67;12.93;;;;;8.20;101063.00;;;;10068097;29;20231;-85
2023/12/19 17:38:57;;;;;;;16.37;11.87;;;;;8.20;101073.00;;;;10078876;29;20230;-84
2023/12/19 17:44:00;;;;;;;14.97;11.10;;;;;8.20;101070.00;;;;10069352;29;20248;-83
2023/12/19 17:49:02;;;;;;;13.27;10.77;;;;;8.20;101080.00;;;;10100060;29;20238;-84
2023/12/19 17:54:04;;;;;;;12.63;10.07;;;;;8.30;101072.00;;;;10073756;29;20237;-85
2023/12/19 17:59:09;;;;;;;11.93;9.00;;;;;8.30;101093.00;;;;10090113;29;20263;-86
2023/12/19 18:04:11;;;;;;;9.30;7.27;;;;;8.40;101104.00;;;;10068354;29;20319;-84
2023/12/19 18:09:13;;;;;;;6.53;5.73;;;;;8.30;101103.00;;;;10081207;29;20232;-83
2023/12/19 18:14:14;;;;;;;5.40;4.23;;;;;8.30;101110.00;;;;10069918;29;20842;-84
2023/12/19 18:19:16;;;;;;;5.80;4.47;;;;;8.20;101107.00;;;;10063276;29;20230;-85
2023/12/19 18:24:17;;;;;;;7.20;5.63;;;;;8.20;101119.00;;;;10079214;29;20231;-85
2023/12/19 18:29:19;;;;;;;9.00;6.20;;;;;8.20;101128.00;;;;10072954;29;20245;-85
2023/12/19 18:34:21;;;;;;;10.27;7.30;;;;;8.20;101121.00;;;;10080704;29;20239;-85
2023/12/19 18:39:22;;;;;;;13.57;8.27;;;;;8.20;101121.00;;;;10069778;29;20780;-80
2023/12/19 18:44:24;;;;;;;10.03;8.43;;;;;8.10;101123.00;;;;10084879;29;20235;-79
2023/12/19 18:49:26;;;;;;;11.27;9.20;;;;;8.20;101135.00;;;;10071750;29;20228;-80
2023/12/19 18:54:27;;;;;;;12.60;10.40;;;;;8.10;101142.00;;;;10058857;29;20231;-79
2023/12/19 18:59:28;;;;;;;14.13;10.93;;;;;8.10;101142.00;;;;10052684;29;20231;-79
2023/12/19 19:04:30;;;;;;;16.83;11.30;;;;;8.10;101149.00;;;;10093214;29;20861;-79
2023/12/19 19:09:32;;;;;;;17.93;12.17;;;;;8.10;101145.00;;;;10073157;29;20226;-80
2023/12/19 19:14:33;;;;;;;19.47;12.40;;;;;8.00;101152.00;;;;10046273;29;20228;-80
2023/12/19 19:19:35;;;;;;;18.47;13.80;;;;;8.00;101146.00;;;;10069861;29;20227;-79
2023/12/19 19:24:37;;;;;;;18.97;13.40;;;;;8.00;101152.00;;;;10055584;29;20298;-80
2023/12/19 19:29:38;;;;;;;20.43;14.00;;;;;8.00;101157.00;;;;10080988;29;20245;-79
2023/12/19 19:34:43;;;;;;;19.60;13.13;;;;;8.00;101154.00;;;;10085887;29;20343;-79
2023/12/19 19:39:45;;;;;;;24.30;13.93;;;;;8.00;101156.00;;;;10084834;29;20559;-79
2023/12/19 19:44:46;;;;;;;21.70;15.10;;;;;8.00;101164.00;;;;10081308;29;20265;-81
2023/12/19 19:49:47;;;;;;;21.60;16.00;;;;;8.00;101175.00;;;;10067444;29;20337;-79
2023/12/19 19:54:49;;;;;;;20.47;13.53;;;;;8.00;101183.00;;;;10074017;29;20906;-79
2023/12/19 19:59:50;;;;;;;20.03;13.57;;;;;7.90;101175.00;;;;10075684;29;20259;-80
2023/12/19 20:04:51;;;;;;;19.43;13.37;;;;;7.90;101178.00;;;;10062293;29;20308;-80
2023/12/19 20:09:53;;;;;;;19.67;13.07;;;;;7.90;101174.00;;;;10074318;29;20228;-79
2023/12/19 20:14:54;;;;;;;20.70;14.73;;;;;8.00;101188.00;;;;10055785;29;20614;-79
2023/12/19 20:19:55;;;;;;;25.70;16.53;;;;;8.00;101182.00;;;;10075337;29;20288;-79
2023/12/19 20:24:59;;;;;;;23.00;16.37;;;;;8.00;101173.00;;;;10079692;29;20307;-80
2023/12/19 20:30:01;;;;;;;34.50;19.87;;;;;8.00;101177.00;;;;10083365;29;20960;-79
2023/12/19 20:35:03;;;;;;;37.93;23.30;;;;;8.00;101181.00;;;;10076436;29;20373;-79
2023/12/19 20:40:05;;;;;;;40.50;25.40;;;;;8.00;101171.00;;;;10067635;29;20227;-79
2023/12/19 20:45:07;;;;;;;41.33;25.10;;;;;8.00;101185.00;;;;10084017;29;20786;-80
2023/12/19 20:50:08;;;;;;;38.83;25.40;;;;;8.00;101179.00;;;;10074463;29;20227;-79
2023/12/19 20:55:09;;;;;;;46.13;26.97;;;;;8.10;101184.00;;;;10075115;29;20235;-78
2023/12/19 21:00:11;;;;;;;38.13;24.77;;;;;8.10;101169.00;;;;10059519;29;20243;-77
2023/12/19 21:05:12;;;;;;;42.13;24.70;;;;;8.10;101175.00;;;;10082216;29;20266;-78
2023/12/19 21:10:14;;;;;;;41.00;26.37;;;;;8.10;101189.00;;;;10072854;29;20379;-78
2023/12/19 21:15:16;;;;;;;38.40;23.50;;;;;8.10;101190.00;;;;10075832;29;20284;-79
2023/12/19 21:20:17;;;;;;;36.23;21.50;;;;;8.10;101182.00;;;;10066580;29;20227;-78
2023/12/19 21:25:18;;;;;;;37.97;22.40;;;;;8.10;101188.00;;;;10080822;29;21062;-78
2023/12/19 21:30:20;;;;;;;33.67;21.83;;;;;8.10;101189.00;;;;10056584;29;20330;-78
2023/12/19 21:35:21;;;;;;;26.73;17.80;;;;;8.10;101180.00;;;;10057922;29;20235;-78
2023/12/19 21:40:22;;;;;;;28.10;17.60;;;;;8.10;101189.00;;;;10058882;29;20224;-79
2023/12/19 21:45:24;;;;;;;20.73;13.53;;;;;8.10;101158.00;;;;10077256;29;20283;-79
2023/12/19 21:50:26;;;;;;;18.93;12.53;;;;;8.10;101187.00;;;;10064478;29;20239;-78
2023/12/19 21:55:28;;;;;;;19.93;13.80;;;;;8.00;101199.00;;;;10074285;29;20256;-79
2023/12/19 22:00:29;;;;;;;25.23;16.17;;;;;7.90;101200.00;;;;10077801;29;20238;-78
2023/12/19 22:05:30;;;;;;;24.87;14.00;;;;;7.90;101204.00;;;;10056234;29;20322;-77
2023/12/19 22:10:31;;;;;;;18.07;10.87;;;;;7.80;101195.00;;;;10085271;29;20231;-77
2023/12/19 22:15:33;;;;;;;19.17;9.03;;;;;7.80;101216.00;;;;10060795;29;20236;-79
2023/12/19 22:20:38;;;;;;;15.10;8.57;;;;;7.70;101219.00;;;;10067690;29;20375;-79
2023/12/19 22:25:39;;;;;;;14.97;7.57;;;;;7.60;101227.00;;;;10059566;29;20232;-78
2023/12/19 22:30:41;;;;;;;13.93;5.07;;;;;7.40;101226.00;;;;10078474;29;20227;-77
2023/12/19 22:35:42;;;;;;;12.80;4.30;;;;;7.30;101226.00;;;;10068023;29;20228;-77
2023/12/19 22:40:44;;;;;;;14.13;6.07;;;;;7.20;101220.00;;;;10075665;29;20238;-78
2023/12/19 22:45:46;;;;;;;16.50;5.00;;;;;7.10;101234.00;;;;10089290;29;20322;-78
2023/12/19 22:50:47;;;;;;;18.30;3.90;;;;;7.00;101219.00;;;;10073177;29;20238;-77
2023/12/19 22:55:48;;;;;;;13.83;3.10;;;;;6.80;101226.00;;;;10046040;29;20235;-78
2023/12/19 23:00:50;;;;;;;16.10;3.47;;;;;6.70;101217.00;;;;10076255;29;20270;-81
2023/12/19 23:05:51;;;;;;;16.57;3.33;;;;;6.50;101229.00;;;;10094232;29;20227;-77
2023/12/19 23:10:53;;;;;;;16.60;3.07;;;;;6.30;101242.00;;;;10094070;29;20224;-78
2023/12/19 23:15:55;;;;;;;19.70;3.07;;;;;6.20;101236.00;;;;10060772;29;20231;-77
2023/12/19 23:20:56;;;;;;;8.00;2.27;;;;;6.00;101229.00;;;;10068387;29;21136;-81
2023/12/19 23:25:57;;;;;;;15.00;3.00;;;;;5.90;101217.00;;;;10085025;29;20787;-81
2023/12/19 23:30:59;;;;;;;17.73;3.30;;;;;5.70;101228.00;;;;10058605;29;20227;-81
2023/12/19 23:36:01;;;;;;;14.73;3.60;;;;;5.60;101232.00;;;;10093303;29;20231;-82
2023/12/19 23:41:03;;;;;;;20.33;3.07;;;;;5.50;101227.00;;;;10090922;29;20315;-82
2023/12/19 23:46:04;;;;;;;11.27;3.83;;;;;5.40;101221.00;;;;10087337;29;20231;-82
2023/12/19 23:51:05;;;;;;;13.50;3.20;;;;;5.30;101210.00;;;;10080151;29;20231;-81
2023/12/19 23:56:06;;;;;;;12.17;3.83;;;;;5.20;101232.00;;;;10077270;29;20264;-82
